Time;durP1;ratioP1;P1;durP2;ratioP2;P2;SDS_P1;SDS_P2;PMS_P1;PMS_P2;Temp;Humidity;BMP_temperature;BMP_pressure;BME280_temperature;BME280_humidity;BME280_pressure;Samples;Min_cycle;Max_cycle;Signal;HPM_P1;HPM_P2
2022/04/28 00:02:19;;;;;;;7.73;7.23;;;;;;;11.56;78.25;96174.31;4384982;32;20188;-60
2022/04/28 00:04:44;;;;;;;7.27;6.77;;;;;;;11.58;78.83;96170.31;4387824;32;20184;-60
2022/04/28 00:07:10;;;;;;;8.00;7.40;;;;;;;11.60;77.62;96167.41;4386832;32;20202;-60
2022/04/28 00:09:35;;;;;;;7.63;7.07;;;;;;;11.44;78.54;96166.69;4385388;32;20325;-60
2022/04/28 00:12:00;;;;;;;7.67;7.13;;;;;;;11.66;78.18;96168.91;4385667;32;20223;-60
2022/04/28 00:14:26;;;;;;;7.90;7.40;;;;;;;11.24;77.68;96164.19;4381980;32;20207;-60
2022/04/28 00:16:51;;;;;;;7.90;7.13;;;;;;;11.71;77.21;96163.56;4384649;32;20202;-60
2022/04/28 00:19:16;;;;;;;7.77;7.07;;;;;;;12.00;77.82;96160.94;4384829;32;20220;-60
2022/04/28 00:21:42;;;;;;;7.23;6.73;;;;;;;11.52;77.17;96171.44;4384776;32;20192;-60
2022/04/28 00:24:07;;;;;;;7.43;6.80;;;;;;;11.89;77.79;96165.56;4387251;32;20230;-60
2022/04/28 00:26:33;;;;;;;7.70;7.20;;;;;;;11.85;77.37;96161.06;4385623;32;20212;-60
2022/04/28 00:28:58;;;;;;;8.00;7.30;;;;;;;11.85;76.23;96159.22;4385710;32;20253;-60
2022/04/28 00:31:23;;;;;;;7.47;6.97;;;;;;;11.62;77.12;96159.94;4386687;32;20232;-60
2022/04/28 00:33:49;;;;;;;7.60;7.00;;;;;;;11.54;77.31;96163.97;4385403;32;20235;-60
2022/04/28 00:36:15;;;;;;;7.93;7.30;;;;;;;11.44;77.87;96164.03;4383224;32;20244;-60
2022/04/28 00:38:40;;;;;;;8.27;7.57;;;;;;;11.81;76.80;96160.06;4385490;32;20223;-60
2022/04/28 00:41:06;;;;;;;8.53;7.83;;;;;;;11.81;76.69;96157.41;4385997;32;20193;-60
2022/04/28 00:43:32;;;;;;;7.50;6.90;;;;;;;11.51;77.01;96159.22;4384818;32;20203;-60
2022/04/28 00:45:59;;;;;;;7.53;7.03;;;;;;;11.69;77.94;96161.19;4384652;32;20196;-60
2022/04/28 00:51:12;;;;;;;7.17;6.57;;;;;;;11.45;77.59;96156.88;4385410;32;20252;-59
2022/04/28 00:53:43;;;;;;;7.37;6.87;;;;;;;11.83;77.72;96160.59;4385630;32;20200;-60
2022/04/28 00:56:09;;;;;;;7.63;7.00;;;;;;;11.79;77.28;96164.88;4387014;32;20184;-60
2022/04/28 00:58:36;;;;;;;8.00;7.50;;;;;;;11.77;76.51;96167.00;4385309;32;20192;-60
2022/04/28 01:01:05;;;;;;;7.90;7.37;;;;;;;11.67;76.56;96167.84;4383914;32;20210;-60
2022/04/28 01:03:31;;;;;;;7.87;7.30;;;;;;;11.60;76.41;96165.53;4385312;32;20236;-60
2022/04/28 01:05:57;;;;;;;7.53;6.97;;;;;;;11.30;75.91;96166.53;4384571;32;20199;-60
2022/04/28 01:08:23;;;;;;;7.27;6.70;;;;;;;11.73;76.73;96161.41;4385460;32;20211;-60
2022/04/28 01:10:49;;;;;;;7.77;7.27;;;;;;;11.47;77.79;96157.38;4384376;32;20253;-60
2022/04/28 01:13:14;;;;;;;8.47;7.70;;;;;;;11.36;77.71;96162.78;4389970;32;20189;-61
2022/04/28 01:15:47;;;;;;;7.13;6.53;;;;;;;11.15;76.58;96165.84;4387269;32;20192;-60
2022/04/28 01:18:13;;;;;;;7.93;7.33;;;;;;;11.50;78.06;96162.94;4387769;32;20184;-59
2022/04/28 01:20:39;;;;;;;7.17;6.67;;;;;;;11.51;76.97;96159.22;4388888;32;20212;-60
2022/04/28 01:23:06;;;;;;;7.10;6.63;;;;;;;11.44;77.60;96157.94;4390207;32;20189;-60
2022/04/28 01:25:31;;;;;;;7.67;7.17;;;;;;;11.49;77.52;96150.72;4386633;32;20210;-60
2022/04/28 01:27:58;;;;;;;7.47;6.83;;;;;;;11.39;77.50;96148.16;4387590;32;20231;-60
2022/04/28 01:30:24;;;;;;;7.63;7.03;;;;;;;11.39;77.27;96150.81;4387492;32;20219;-59
2022/04/28 01:32:50;;;;;;;7.33;6.83;;;;;;;11.48;77.72;96146.47;4387109;32;20196;-60
2022/04/28 01:35:16;;;;;;;7.40;6.90;;;;;;;11.33;76.92;96147.41;4386864;32;20228;-60
2022/04/28 01:37:41;;;;;;;7.83;7.30;;;;;;;11.13;76.52;96152.06;4390934;32;20199;-60
2022/04/28 01:40:11;;;;;;;7.17;6.67;;;;;;;11.31;76.85;96154.84;4387788;32;20206;-60
2022/04/28 01:42:39;;;;;;;7.13;6.43;;;;;;;11.25;77.42;96147.19;4388310;32;20197;-60
2022/04/28 01:45:06;;;;;;;6.60;6.20;;;;;;;10.98;78.23;96145.78;4389877;32;20215;-60
2022/04/28 01:47:31;;;;;;;7.17;6.77;;;;;;;10.87;78.75;96146.91;4388744;32;20227;-60
2022/04/28 01:49:57;;;;;;;6.97;6.57;;;;;;;10.98;78.36;96148.44;4388778;32;20224;-60
2022/04/28 01:55:06;;;;;;;7.30;6.80;;;;;;;11.13;77.29;96155.50;4388395;32;20323;-60
2022/04/28 01:57:31;;;;;;;7.47;6.97;;;;;;;10.70;78.22;96157.06;4388266;32;20184;-61
2022/04/28 02:00:00;;;;;;;6.70;6.27;;;;;;;10.75;78.59;96151.75;4386101;32;20246;-60
2022/04/28 02:02:25;;;;;;;7.57;7.07;;;;;;;10.90;78.13;96151.66;4387890;32;20237;-61
2022/04/28 02:04:51;;;;;;;7.33;6.87;;;;;;;10.83;78.78;96153.03;4388981;32;20191;-60
2022/04/28 02:07:16;;;;;;;8.13;7.43;;;;;;;10.72;78.51;96154.16;4386507;32;20279;-60
2022/04/28 02:09:43;;;;;;;7.50;6.90;;;;;;;10.66;78.17;96158.69;4388694;32;20216;-60
2022/04/28 02:12:09;;;;;;;8.20;7.43;;;;;;;10.86;78.84;96153.28;4383591;32;20233;-60
2022/04/28 02:14:35;;;;;;;7.67;7.07;;;;;;;11.13;77.02;96152.06;4387453;32;20192;-60
2022/04/28 02:17:01;;;;;;;7.33;6.80;;;;;;;10.88;77.44;96151.13;4383627;32;20200;-60
2022/04/28 02:19:26;;;;;;;8.53;7.83;;;;;;;10.97;78.38;96154.03;4388005;32;20255;-60
2022/04/28 02:21:52;;;;;;;6.97;6.37;;;;;;;11.07;78.11;96153.94;4387469;32;20283;-60
2022/04/28 02:24:17;;;;;;;7.27;6.77;;;;;;;11.12;77.53;96161.88;4385603;32;20247;-60
2022/04/28 02:26:42;;;;;;;8.03;7.43;;;;;;;10.99;78.29;96163.31;4388629;32;20196;-60
2022/04/28 02:29:08;;;;;;;7.73;7.13;;;;;;;11.06;77.51;96159.53;4387937;32;20180;-60
2022/04/28 02:31:33;;;;;;;8.30;7.70;;;;;;;10.87;77.86;96162.81;4387521;32;20184;-60
2022/04/28 02:33:58;;;;;;;7.90;7.33;;;;;;;10.66;77.76;96167.44;4388277;32;20196;-61
2022/04/28 02:36:26;;;;;;;7.53;7.03;;;;;;;10.72;78.78;96170.88;4387871;32;20251;-60
2022/04/28 02:38:52;;;;;;;8.17;7.37;;;;;;;10.84;78.54;96160.72;4386142;32;20242;-60
2022/04/28 02:41:21;;;;;;;8.53;7.80;;;;;;;10.58;78.89;96173.34;4387250;32;20232;-60
2022/04/28 02:43:50;;;;;;;8.37;7.73;;;;;;;10.98;78.97;96169.69;4386951;32;20188;-60
2022/04/28 02:46:15;;;;;;;8.80;8.20;;;;;;;10.75;78.56;96172.97;4386399;32;20267;-58
2022/04/28 02:48:41;;;;;;;8.17;7.57;;;;;;;10.98;77.62;96167.03;4388184;32;20188;-60
2022/04/28 02:51:06;;;;;;;9.97;8.63;;;;;;;10.85;77.59;96170.25;4385508;32;20207;-59
2022/04/28 02:53:32;;;;;;;8.80;8.10;;;;;;;10.78;79.07;96177.75;4387002;32;20191;-59
2022/04/28 02:55:57;;;;;;;9.03;8.30;;;;;;;10.88;78.71;96169.72;4386385;32;20227;-59
2022/04/28 02:58:23;;;;;;;7.77;7.17;;;;;;;10.64;77.51;96171.44;4387401;32;20196;-60
2022/04/28 03:00:48;;;;;;;8.17;7.47;;;;;;;10.49;79.90;96168.84;4387348;32;20208;-59
2022/04/28 03:03:13;;;;;;;8.20;7.60;;;;;;;10.50;79.98;96168.56;4387984;32;20192;-60
2022/04/28 03:11:07;;;;;;;9.07;8.17;;;;;;;10.48;79.40;96175.22;4387045;32;20247;-60
2022/04/28 03:13:32;;;;;;;12.37;7.97;;;;;;;10.62;79.96;96173.56;4387452;32;20212;-60
2022/04/28 03:15:58;;;;;;;8.17;7.57;;;;;;;10.56;79.47;96170.16;4385757;32;20259;-60
2022/04/28 03:18:24;;;;;;;8.23;7.47;;;;;;;10.70;79.68;96172.22;4386728;32;20193;-60
2022/04/28 03:20:49;;;;;;;8.43;7.67;;;;;;;10.72;80.73;96173.53;4385596;32;20192;-60
2022/04/28 03:23:14;;;;;;;8.27;7.63;;;;;;;10.54;79.75;96168.84;4388854;32;20206;-59
2022/04/28 03:25:40;;;;;;;8.63;7.97;;;;;;;10.30;80.22;96172.09;4388650;32;20196;-60
2022/04/28 03:28:08;;;;;;;9.47;8.67;;;;;;;10.36;80.32;96174.75;4386653;32;20335;-62
2022/04/28 03:30:33;;;;;;;8.37;7.77;;;;;;;10.27;80.90;96177.94;4385288;32;20188;-60
2022/04/28 03:32:59;;;;;;;8.77;8.00;;;;;;;10.26;80.73;96175.53;4386854;32;20206;-60
2022/04/28 03:35:24;;;;;;;9.47;8.67;;;;;;;10.34;80.74;96175.00;4386130;32;20207;-60
2022/04/28 03:37:49;;;;;;;8.90;8.30;;;;;;;10.42;80.60;96168.31;4385223;32;20215;-60
2022/04/28 03:40:16;;;;;;;8.00;7.40;;;;;;;10.53;80.88;96173.34;4387101;32;20211;-60
2022/04/28 03:42:42;;;;;;;9.17;8.33;;;;;;;10.59;79.96;96182.87;4387266;32;20199;-60
2022/04/28 03:45:07;;;;;;;8.03;7.43;;;;;;;10.72;79.13;96183.34;4386940;32;20189;-60
2022/04/28 03:47:33;;;;;;;8.73;7.97;;;;;;;10.89;78.97;96183.78;4386649;32;20185;-59
2022/04/28 03:49:59;;;;;;;8.80;8.13;;;;;;;10.90;78.19;96188.03;4387725;32;20203;-60
2022/04/28 03:52:24;;;;;;;8.00;7.40;;;;;;;10.53;78.50;96191.91;4386394;32;20208;-60
2022/04/28 03:54:49;;;;;;;8.57;7.87;;;;;;;10.46;79.81;96190.59;4382781;32;20215;-60
2022/04/28 03:57:15;;;;;;;9.63;8.93;;;;;;;10.42;80.46;96186.91;4386325;32;20246;-60
2022/04/28 03:59:40;;;;;;;10.30;9.30;;;;;;;10.16;80.11;96197.56;4386436;32;20211;-60
2022/04/28 04:02:05;;;;;;;9.17;8.43;;;;;;;10.23;79.93;96198.09;4384937;32;20267;-60
2022/04/28 04:04:31;;;;;;;9.33;8.43;;;;;;;10.03;79.48;96198.09;4386406;32;20204;-60
2022/04/28 04:06:56;;;;;;;9.30;8.60;;;;;;;10.45;80.28;96199.63;4383853;32;20195;-61
2022/04/28 04:09:21;;;;;;;10.20;9.30;;;;;;;10.30;80.21;96203.91;4386469;32;20188;-61
2022/04/28 04:11:47;;;;;;;8.83;8.03;;;;;;;10.30;80.86;96203.13;4385476;32;20198;-60
2022/04/28 04:14:12;;;;;;;8.63;7.80;;;;;;;10.30;80.98;96203.91;4387949;32;20180;-60
2022/04/28 04:16:37;;;;;;;9.43;8.63;;;;;;;10.36;80.58;96210.00;4385511;32;20199;-61
2022/04/28 04:19:03;;;;;;;9.20;8.50;;;;;;;10.39;79.57;96209.47;4384170;32;20299;-60
2022/04/28 04:21:28;;;;;;;8.97;8.27;;;;;;;10.65;79.02;96210.16;4385085;32;20230;-60
2022/04/28 04:23:54;;;;;;;9.83;8.83;;;;;;;10.58;79.00;96215.00;4386515;32;20192;-60
2022/04/28 04:26:19;;;;;;;10.93;9.63;;;;;;;10.46;79.38;96217.94;4378184;32;20184;-60
2022/04/28 04:28:44;;;;;;;11.23;9.00;;;;;;;10.28;79.06;96219.31;4386405;32;20211;-60
2022/04/28 04:33:54;;;;;;;9.63;8.63;;;;;;;10.31;79.98;96216.12;4386464;32;20207;-60
2022/04/28 04:36:20;;;;;;;9.80;8.90;;;;;;;10.24;79.79;96225.41;4385343;32;20196;-60
2022/04/28 04:38:45;;;;;;;12.07;8.90;;;;;;;10.59;79.37;96221.88;4389250;32;20206;-60
2022/04/28 04:41:11;;;;;;;9.00;8.10;;;;;;;10.16;80.81;96216.12;4385793;32;20196;-60
2022/04/28 04:43:40;;;;;;;10.00;9.10;;;;;;;10.45;80.79;96223.50;4382931;32;20317;-60
2022/04/28 04:46:08;;;;;;;13.37;9.30;;;;;;;10.39;79.01;96221.94;4385382;32;20260;-60
2022/04/28 04:48:34;;;;;;;10.57;8.90;;;;;;;10.53;79.54;96223.75;4384877;32;20184;-59
2022/04/28 04:51:00;;;;;;;9.43;8.70;;;;;;;10.42;80.62;96229.34;4385794;32;20192;-59
2022/04/28 04:53:25;;;;;;;13.57;9.93;;;;;;;10.27;80.53;96232.81;4384253;32;20215;-60
2022/04/28 04:55:51;;;;;;;11.13;10.03;;;;;;;10.19;81.02;96236.81;4385227;32;20188;-60
2022/04/28 04:58:16;;;;;;;10.53;9.63;;;;;;;10.26;81.08;96241.84;4385675;32;20184;-61
2022/04/28 05:00:42;;;;;;;10.80;9.80;;;;;;;10.47;80.79;96237.28;4384115;32;20251;-60
2022/04/28 05:03:07;;;;;;;10.10;9.10;;;;;;;10.49;80.24;96245.78;4385935;32;20242;-60
2022/04/28 05:05:32;;;;;;;11.17;10.07;;;;;;;10.72;79.77;96247.84;4385853;32;20307;-60
2022/04/28 05:07:58;;;;;;;11.97;10.87;;;;;;;10.42;80.01;96247.91;4383295;32;20236;-60
2022/04/28 05:10:23;;;;;;;10.83;9.93;;;;;;;10.50;79.28;96255.31;4384195;32;20184;-59
2022/04/28 05:12:49;;;;;;;10.93;9.93;;;;;;;10.53;79.93;96252.13;4384815;32;20197;-59
2022/04/28 05:15:14;;;;;;;10.43;9.60;;;;;;;10.57;80.13;96256.66;4387851;32;20285;-60
2022/04/28 05:17:39;;;;;;;11.20;10.00;;;;;;;10.70;79.38;96255.25;4384168;32;20201;-60
2022/04/28 05:20:06;;;;;;;10.23;9.43;;;;;;;10.75;78.95;96254.47;4385651;32;21742;-60
2022/04/28 05:22:32;;;;;;;11.27;10.27;;;;;;;10.84;79.52;96256.28;4385845;32;20211;-60
2022/04/28 05:24:57;;;;;;;12.30;10.23;;;;;;;10.91;78.63;96259.44;4383246;32;20180;-60
2022/04/28 05:27:22;;;;;;;11.07;10.07;;;;;;;10.97;78.09;96260.22;4386164;32;20192;-60
2022/04/28 05:29:48;;;;;;;16.97;11.60;;;;;;;10.94;79.68;96276.69;4385131;32;20283;-61
2022/04/28 05:32:16;;;;;;;11.83;10.40;;;;;;;10.89;79.76;96272.19;4385006;32;20189;-60
2022/04/28 05:34:42;;;;;;;12.60;10.67;;;;;;;10.87;79.64;96276.97;4396739;32;20203;-60
2022/04/28 05:37:07;;;;;;;12.40;11.17;;;;;;;11.05;79.45;96277.44;4384011;32;20189;-60
2022/04/28 05:39:34;;;;;;;14.20;11.60;;;;;;;10.94;79.00;96285.44;4386222;32;20241;-60
2022/04/28 05:42:01;;;;;;;13.53;10.07;;;;;;;10.97;78.95;96281.47;4385706;32;20200;-60
2022/04/28 05:47:10;;;;;;;26.97;11.60;;;;;;;11.15;79.56;96272.09;4386115;32;20217;-60
2022/04/28 05:49:37;;;;;;;26.77;12.37;;;;;;;11.20;78.96;96286.16;4383539;32;20259;-60
2022/04/28 05:52:02;;;;;;;26.03;11.87;;;;;;;11.32;78.91;96277.84;4386588;32;20248;-60
2022/04/28 05:54:28;;;;;;;17.83;13.47;;;;;;;11.29;78.52;96284.47;4385703;32;20242;-60
2022/04/28 05:56:53;;;;;;;30.77;11.90;;;;;;;11.39;77.94;96288.97;4382495;32;20233;-60
2022/04/28 05:59:18;;;;;;;17.93;12.17;;;;;;;11.43;78.28;96279.34;4373730;32;20179;-60
2022/04/28 06:01:44;;;;;;;14.77;11.30;;;;;;;11.31;77.73;96282.34;4385766;32;20252;-60
2022/04/28 06:04:09;;;;;;;18.57;11.17;;;;;;;11.20;77.45;96291.44;4388024;32;20188;-60
2022/04/28 06:06:35;;;;;;;15.97;10.70;;;;;;;11.30;77.77;96295.91;4382554;32;20189;-60
2022/04/28 06:09:00;;;;;;;15.93;11.50;;;;;;;11.53;77.83;96297.13;4385421;32;20168;-60
2022/04/28 06:11:26;;;;;;;11.90;10.67;;;;;;;11.57;77.59;96298.97;4388861;32;20212;-60
2022/04/28 06:13:51;;;;;;;15.20;10.70;;;;;;;11.53;76.96;96295.25;4391305;32;20189;-60
2022/04/28 06:16:17;;;;;;;13.93;11.33;;;;;;;11.77;76.52;96302.59;4390864;32;20193;-61
2022/04/28 06:18:42;;;;;;;14.80;11.47;;;;;;;11.87;75.96;96305.16;4391802;32;20215;-60
2022/04/28 06:21:07;;;;;;;12.87;9.67;;;;;;;11.80;75.60;96305.50;4392546;32;20207;-60
2022/04/28 06:23:33;;;;;;;12.00;10.17;;;;;;;11.82;75.21;96313.19;4392269;32;20191;-60
2022/04/28 06:26:00;;;;;;;11.73;9.73;;;;;;;11.65;75.48;96319.63;4391228;32;20220;-60
2022/04/28 06:28:26;;;;;;;10.70;9.27;;;;;;;11.71;74.73;96313.22;4391156;32;20190;-60
2022/04/28 06:30:51;;;;;;;11.00;8.90;;;;;;;11.91;74.60;96322.94;4392869;32;20185;-60
2022/04/28 06:33:18;;;;;;;10.63;9.53;;;;;;;12.05;74.73;96317.81;4390651;32;20177;-60
2022/04/28 06:35:43;;;;;;;14.57;9.70;;;;;;;12.16;74.22;96316.66;4391275;32;20264;-60
2022/04/28 06:38:09;;;;;;;12.40;11.30;;;;;;;12.60;78.50;96316.53;4391865;32;20222;-61
2022/04/28 06:40:34;;;;;;;14.37;10.27;;;;;;;12.62;73.55;96321.59;4392273;32;20196;-60
2022/04/28 06:42:59;;;;;;;15.60;9.93;;;;;;;12.70;78.27;96324.41;4392094;32;20172;-61
2022/04/28 06:45:25;;;;;;;11.60;9.87;;;;;;;12.77;78.19;96324.09;4392586;32;20177;-61
2022/04/28 06:47:50;;;;;;;12.13;10.97;;;;;;;12.54;77.05;96327.50;4388092;32;20230;-62
2022/04/28 06:50:15;;;;;;;11.37;10.23;;;;;;;12.49;73.60;96327.53;4388485;32;20188;-62
2022/04/28 06:52:41;;;;;;;11.87;10.97;;;;;;;12.17;72.28;96326.22;4385561;32;20218;-62
2022/04/28 06:55:09;;;;;;;11.57;10.40;;;;;;;11.92;73.06;96329.06;4385747;32;20300;-63
2022/04/28 06:57:36;;;;;;;12.00;10.60;;;;;;;11.70;74.22;96338.19;4385175;32;20191;-62
2022/04/28 07:00:06;;;;;;;10.70;9.80;;;;;;;11.46;73.58;96334.59;4385411;32;20185;-62
2022/04/28 07:02:31;;;;;;;10.13;9.33;;;;;;;11.55;74.09;96334.84;4386184;32;20177;-61
2022/04/28 07:04:57;;;;;;;10.53;9.60;;;;;;;11.67;72.52;96327.31;4388578;32;20238;-62
2022/04/28 07:07:22;;;;;;;10.37;9.57;;;;;;;11.79;72.22;96335.00;4385878;32;20194;-61
2022/04/28 07:09:48;;;;;;;10.37;9.50;;;;;;;11.91;72.80;96338.09;4386863;32;20245;-62
2022/04/28 07:12:14;;;;;;;10.37;9.47;;;;;;;12.04;72.29;96338.31;4389188;32;20214;-61
2022/04/28 07:14:39;;;;;;;9.97;9.07;;;;;;;12.01;71.26;96338.84;4385968;32;20189;-62
2022/04/28 07:17:05;;;;;;;9.80;8.90;;;;;;;11.91;71.21;96340.78;4386577;32;20195;-62
2022/04/28 07:19:30;;;;;;;9.60;8.77;;;;;;;11.77;71.27;96334.50;4385942;32;20251;-62
2022/04/28 07:21:55;;;;;;;8.97;8.27;;;;;;;11.86;71.11;96336.28;4386142;32;20180;-62
2022/04/28 07:24:21;;;;;;;8.87;8.17;;;;;;;11.87;71.13;96337.84;4383749;32;20195;-62
2022/04/28 07:26:46;;;;;;;8.20;7.60;;;;;;;11.88;70.77;96342.09;4384728;32;20203;-63
2022/04/28 07:29:12;;;;;;;7.93;7.33;;;;;;;11.81;70.60;96338.97;4389453;32;20218;-62
2022/04/28 07:31:37;;;;;;;7.73;7.23;;;;;;;11.80;69.91;96341.91;4385084;32;20204;-62
2022/04/28 07:34:03;;;;;;;7.70;7.10;;;;;;;11.94;69.81;96349.00;4387595;32;20184;-62
2022/04/28 07:36:28;;;;;;;7.43;6.93;;;;;;;11.90;69.61;96345.28;4387372;32;20236;-62
2022/04/28 07:38:54;;;;;;;7.07;6.57;;;;;;;11.97;70.01;96339.66;4386848;32;20188;-62
2022/04/28 07:41:19;;;;;;;7.00;6.40;;;;;;;12.11;68.84;96343.28;4384769;32;20177;-62
2022/04/28 07:43:45;;;;;;;10.40;9.40;;;;;;;12.28;68.18;96342.87;4386976;32;20189;-62
2022/04/28 07:46:10;;;;;;;6.43;6.00;;;;;;;12.36;67.63;96343.09;4386274;32;20202;-61
2022/04/28 07:48:35;;;;;;;7.07;6.40;;;;;;;12.53;65.09;96345.34;4386686;32;20466;-64
2022/04/28 07:51:01;;;;;;;9.47;8.67;;;;;;;12.55;65.62;96347.72;4373029;32;20185;-62
2022/04/28 07:53:26;;;;;;;6.33;5.70;;;;;;;12.57;65.39;96341.06;4386430;32;20203;-62
2022/04/28 07:58:36;;;;;;;6.20;5.80;;;;;;;12.62;64.95;96350.87;4386858;32;20204;-62
2022/04/28 08:01:06;;;;;;;6.43;5.90;;;;;;;12.58;65.92;96352.50;4386626;32;20240;-62
2022/04/28 08:03:32;;;;;;;6.10;5.60;;;;;;;12.78;64.47;96349.63;4386445;32;20181;-62
2022/04/28 08:05:57;;;;;;;7.13;5.80;;;;;;;12.94;63.77;96356.38;4385970;32;20218;-63
2022/04/28 08:08:23;;;;;;;7.00;6.07;;;;;;;13.09;63.62;96358.88;4385832;32;20195;-62
2022/04/28 08:10:49;;;;;;;6.20;5.70;;;;;;;13.26;63.08;96360.34;4374789;32;20241;-62
2022/04/28 08:13:14;;;;;;;6.07;5.57;;;;;;;13.17;62.80;96359.38;4378012;32;20176;-62
2022/04/28 08:15:40;;;;;;;6.50;6.03;;;;;;;13.20;63.34;96356.16;4368344;32;20195;-61
2022/04/28 08:18:08;;;;;;;6.40;5.90;;;;;;;13.39;62.60;96360.44;4373547;32;27547;-62
2022/04/28 08:20:34;;;;;;;6.43;5.93;;;;;;;13.29;63.16;96360.59;4369137;32;20268;-62
2022/04/28 08:23:00;;;;;;;5.80;5.30;;;;;;;13.08;62.87;96365.31;4380342;32;20232;-62
2022/04/28 08:25:25;;;;;;;6.43;5.93;;;;;;;13.15;64.23;96362.31;4373943;32;20237;-62
2022/04/28 08:27:51;;;;;;;5.87;5.47;;;;;;;13.28;62.74;96360.88;4369717;32;20203;-61
2022/04/28 08:30:17;;;;;;;5.93;5.53;;;;;;;13.34;62.59;96360.50;4371728;32;20203;-63
2022/04/28 08:32:42;;;;;;;6.57;5.67;;;;;;;13.48;61.38;96363.28;4390502;32;20195;-43
2022/04/28 08:35:12;;;;;;;7.80;4.40;;;;;;;14.18;61.26;96358.03;4379849;32;20198;-41
2022/04/28 08:37:39;;;;;;;5.17;4.77;;;;;;;15.12;67.00;96360.50;4387573;32;20199;-40
2022/04/28 08:40:12;;;;;;;5.33;4.87;;;;;;;14.48;56.70;96367.50;4381983;32;20188;-42
2022/04/28 08:42:42;;;;;;;5.67;5.00;;;;;;;13.89;55.65;96366.22;4386907;32;20184;-40
2022/04/28 08:45:09;;;;;;;6.17;5.23;;;;;;;14.30;58.78;96363.75;4372383;32;20206;-41
2022/04/28 08:47:39;;;;;;;6.40;5.90;;;;;;;15.10;56.53;96368.03;4374775;32;20177;-42
2022/04/28 08:50:09;;;;;;;5.93;5.53;;;;;;;14.63;54.15;96377.12;4388798;32;20239;-43
2022/04/28 08:52:36;;;;;;;5.40;5.10;;;;;;;14.24;56.73;96367.56;4380535;32;20196;-41
2022/04/28 08:55:02;;;;;;;5.27;4.83;;;;;;;14.28;56.79;96371.25;4381910;32;20180;-40
2022/04/28 08:57:34;;;;;;;5.43;4.67;;;;;;;14.29;54.84;96372.03;4350695;32;20258;-41
2022/04/28 09:00:00;;;;;;;4.57;4.17;;;;;;;14.27;54.60;96372.31;4362668;32;20285;-41
2022/04/28 09:02:32;;;;;;;4.27;3.97;;;;;;;15.04;55.39;96372.66;4378991;32;20234;-42
2022/04/28 09:05:07;;;;;;;3.20;3.00;;;;;;;15.82;55.90;96363.63;4388634;32;20184;-40
2022/04/28 09:07:39;;;;;;;3.20;2.90;;;;;;;16.13;53.28;96368.31;4367012;32;20188;-41
2022/04/28 09:10:32;;;;;;;4.00;3.70;;;;;;;16.58;53.23;96361.09;4354555;32;20192;-41
2022/04/28 09:15:52;;;;;;;3.83;3.63;;;;;;;17.17;52.65;96370.59;4364168;32;20214;-40
2022/04/28 09:18:21;;;;;;;3.67;3.40;;;;;;;17.11;48.67;96371.81;4370916;32;20179;-41
2022/04/28 09:20:47;;;;;;;4.10;3.73;;;;;;;17.46;48.35;96371.94;4353285;32;20245;-63
2022/04/28 09:23:15;;;;;;;5.10;4.70;;;;;;;17.12;43.16;96369.94;4377374;32;20185;-61
2022/04/28 09:25:42;;;;;;;4.70;4.40;;;;;;;16.59;44.25;96375.28;4382970;32;20215;-61
2022/04/28 09:28:11;;;;;;;5.37;4.90;;;;;;;16.05;44.62;96377.06;4367417;32;20204;-61
2022/04/28 09:30:49;;;;;;;4.53;4.13;;;;;;;15.78;44.66;96375.25;4365405;32;20268;-64
2022/04/28 09:33:22;;;;;;;4.40;4.00;;;;;;;15.33;45.19;96377.72;4343053;32;20189;-62
2022/04/28 09:35:53;;;;;;;5.80;3.93;;;;;;;15.02;44.42;96372.16;4386023;32;20200;-61
2022/04/28 09:38:20;;;;;;;3.80;3.60;;;;;;;14.74;46.71;96371.34;4371839;32;20195;-62
2022/04/28 09:43:35;;;;;;;4.50;4.20;;;;;;;14.91;45.44;96383.34;4392900;32;20191;-62
2022/04/28 09:46:04;;;;;;;5.03;4.63;;;;;;;14.74;43.57;96381.22;4377357;32;20214;-61
2022/04/28 09:48:36;;;;;;;4.33;4.13;;;;;;;14.82;43.86;96383.22;4354711;32;20216;-61
2022/04/28 09:51:07;;;;;;;3.53;3.33;;;;;;;14.73;46.51;96368.94;4366830;32;20247;-60
2022/04/28 09:53:36;;;;;;;4.50;4.07;;;;;;;14.66;44.69;96368.53;4384119;32;20223;-61
2022/04/28 09:56:11;;;;;;;3.97;3.70;;;;;;;14.76;44.22;96371.81;4343401;32;20195;-62
2022/04/28 09:58:38;;;;;;;3.77;3.47;;;;;;;14.85;45.56;96363.91;4390698;32;20271;-62
2022/04/28 10:01:14;;;;;;;3.77;3.47;;;;;;;14.81;43.25;96362.12;4376009;32;20180;-62
2022/04/28 10:03:43;;;;;;;4.30;3.90;;;;;;;14.94;43.75;96362.16;4378954;32;20221;-62
2022/04/28 10:06:13;;;;;;;4.73;4.33;;;;;;;15.07;44.20;96358.69;4401946;32;20248;-62
2022/04/28 10:08:42;;;;;;;5.20;4.83;;;;;;;15.21;46.74;96363.25;4375323;32;20198;-62
2022/04/28 10:11:17;;;;;;;4.73;4.20;;;;;;;15.29;47.99;96365.25;4388543;32;20184;-62
2022/04/28 10:13:44;;;;;;;3.47;3.13;;;;;;;15.33;45.38;96363.56;4343956;32;20217;-62
2022/04/28 10:16:17;;;;;;;3.53;3.10;;;;;;;15.41;42.93;96357.50;4324739;32;20195;-62
2022/04/28 10:19:05;;;;;;;3.77;3.03;;;;;;;15.44;42.71;96359.59;4377092;32;20222;-62
2022/04/28 10:22:08;;;;;;;5.23;4.70;;;;;;;15.51;42.17;96353.84;4365255;32;20177;-62
2022/04/28 10:33:21;;;;;;;5.73;5.23;;;;;;;15.41;45.52;96362.88;4372918;32;20215;-59
2022/04/28 10:35:57;;;;;;;5.30;4.70;;;;;;;15.37;46.63;96353.88;4307530;32;20235;-62
2022/04/28 10:38:42;;;;;;;4.30;3.70;;;;;;;15.29;45.76;96357.22;4372895;32;20180;-62
2022/04/28 10:41:11;;;;;;;4.33;3.57;;;;;;;15.12;45.62;96366.63;4378726;32;20176;-62
2022/04/28 10:43:43;;;;;;;3.23;2.90;;;;;;;15.18;42.94;96372.66;4370145;32;20280;-62
2022/04/28 10:46:13;;;;;;;4.00;3.70;;;;;;;15.29;42.32;96367.94;4342952;32;20282;-62
2022/04/28 10:49:01;;;;;;;4.23;3.93;;;;;;;15.46;42.45;96365.44;4369833;32;20190;-62
2022/04/28 10:51:31;;;;;;;5.07;4.57;;;;;;;15.70;42.85;96360.69;4310744;32;20180;-62
2022/04/28 10:54:21;;;;;;;5.00;4.60;;;;;;;15.56;44.12;96370.63;4363538;32;20216;-62
2022/04/28 10:56:54;;;;;;;4.67;4.40;;;;;;;15.25;43.68;96369.59;4397601;32;20227;-61
2022/04/28 10:59:36;;;;;;;5.30;4.80;;;;;;;15.18;44.47;96369.97;4368475;32;20207;-61
2022/04/28 11:02:11;;;;;;;4.87;4.57;;;;;;;15.24;44.63;96373.37;4374725;32;20234;-62
2022/04/28 11:04:49;;;;;;;5.80;5.30;;;;;;;15.31;45.63;96373.78;4375281;32;20271;-62
2022/04/28 11:07:23;;;;;;;5.90;5.43;;;;;;;15.39;44.73;96370.38;4352364;32;20218;-62
2022/04/28 11:10:07;;;;;;;5.33;4.93;;;;;;;15.37;44.60;96368.03;4358152;32;20187;-61
2022/04/28 11:12:37;;;;;;;4.23;3.73;;;;;;;15.48;43.77;96376.62;4375669;32;20184;-61
2022/04/28 11:15:17;;;;;;;3.73;3.43;;;;;;;15.51;42.50;96377.91;4364195;32;20200;-62
2022/04/28 11:17:45;;;;;;;5.63;3.63;;;;;;;15.56;41.24;96386.69;4367035;32;20239;-63
2022/04/28 11:20:15;;;;;;;8.20;4.03;;;;;;;15.36;40.03;96376.34;4381577;32;20301;-59
2022/04/28 11:22:55;;;;;;;4.17;3.73;;;;;;;15.40;40.74;96371.97;4370377;32;20189;-62
2022/04/28 11:25:25;;;;;;;3.97;3.57;;;;;;;15.45;40.82;96377.22;4354201;32;20234;-62
2022/04/28 11:27:55;;;;;;;4.00;3.60;;;;;;;15.34;40.12;96367.84;4351686;32;20230;-62
2022/04/28 11:30:28;;;;;;;4.33;3.83;;;;;;;15.35;40.48;96374.75;4350256;32;20181;-62
2022/04/28 11:33:07;;;;;;;4.80;4.40;;;;;;;15.33;40.21;96382.28;4355301;32;20204;-62
2022/04/28 11:35:40;;;;;;;3.97;3.67;;;;;;;15.26;41.37;96379.22;4373423;32;20203;-62
2022/04/28 11:38:08;;;;;;;5.83;3.50;;;;;;;15.28;40.51;96374.34;4348793;32;20213;-66
2022/04/28 11:40:37;;;;;;;3.73;3.30;;;;;;;15.39;40.79;96373.06;4368074;32;20185;-63
2022/04/28 11:43:06;;;;;;;3.60;3.40;;;;;;;15.43;40.07;96382.06;4354339;32;20173;-63
2022/04/28 11:45:33;;;;;;;3.90;3.70;;;;;;;15.59;40.21;96375.34;4323928;32;20237;-62
2022/04/28 11:48:01;;;;;;;3.53;3.30;;;;;;;15.73;39.77;96378.81;4359142;32;20188;-61
2022/04/28 11:50:32;;;;;;;3.77;3.47;;;;;;;15.59;39.38;96372.69;4361520;32;20250;-62
2022/04/28 11:53:07;;;;;;;3.50;3.20;;;;;;;15.65;42.57;96373.37;4323502;32;20189;-61
2022/04/28 11:55:40;;;;;;;4.13;3.93;;;;;;;15.67;40.13;96371.19;4365052;32;20260;-61
2022/04/28 11:58:18;;;;;;;4.77;3.43;;;;;;;15.56;38.91;96375.19;4362929;32;20177;-60
2022/04/28 12:00:45;;;;;;;6.63;5.13;;;;;;;15.59;39.07;96370.00;4337974;32;20229;-61
2022/04/28 12:03:32;;;;;;;4.07;3.63;;;;;;;15.57;39.74;96371.41;4349202;32;20315;-61
2022/04/28 12:05:58;;;;;;;3.97;3.67;;;;;;;15.70;39.56;96375.94;4380466;32;20195;-61
2022/04/28 12:08:24;;;;;;;3.93;3.63;;;;;;;15.66;39.32;96381.09;4336144;32;20188;-60